ADDS METAR Data INFO
IDs: Format: Raw Decoded Include TAF

Data at: 0245 UTC 21 Oct 2017

KRCM 210235Z AUTO 15011G15KT 10SM CLR 17/12 A2990 RMK AO2
KRCM 210215Z AUTO 15009KT 10SM CLR 17/12 A2990 RMK AO2
KRCM 210155Z AUTO 14009KT 10SM CLR 17/12 A2990 RMK AO2
KRCM 210135Z AUTO 14009KT 10SM CLR 17/12 A2991 RMK AO2
KRCM 210115Z AUTO 14008KT 10SM CLR 17/12 A2991 RMK AO2
KRCM 210055Z AUTO 14009KT 10SM CLR 18/12 A2991 RMK AO2
KRCM 210035Z AUTO 13009KT 10SM CLR 18/12 A2991 RMK AO2
KRCM 210015Z AUTO 13009KT 10SM CLR 18/12 A2992 RMK AO2
KRCM 202355Z AUTO 13009KT 10SM CLR 19/12 A2992 RMK AO2
KRCM 202335Z AUTO 14008KT 10SM CLR 20/12 A2992 RMK AO2
KRCM 202315Z AUTO 13009KT 10SM CLR 20/13 A2992 RMK AO2
KRCM 202255Z AUTO 14012KT 10SM CLR 21/12 A2992 RMK AO2
KRCM 202235Z AUTO 13015KT 10SM CLR 22/13 A2993 RMK AO2
KRCM 202215Z AUTO 14010G17KT 10SM CLR 22/13 A2994 RMK AO2
KRCM 202155Z AUTO 14009KT 10SM CLR 22/13 A2995 RMK AO2
KRCM 202135Z AUTO 16009G20KT 10SM CLR 21/12 A2995 RMK AO2
KRCM 202115Z AUTO 15014G18KT 10SM CLR 22/13 A2995 RMK AO2
KRCM 202055Z AUTO 16011G18KT 10SM CLR 22/13 A2996 RMK AO2
KRCM 202035Z AUTO 14014KT 10SM CLR 21/13 A2997 RMK AO2
KRCM 202015Z AUTO 15012G18KT 10SM CLR 20/13 A2998 RMK AO2
KRCM 201955Z AUTO 13007KT 10SM SCT120 20/13 A2999 RMK AO2
KRCM 201935Z AUTO 13007KT 10SM -RA SCT120 19/13 A3000 RMK AO2
KRCM 201915Z AUTO 14009KT 10SM CLR 20/13 A3001 RMK AO2
KRCM 201855Z AUTO 16010G14KT 10SM CLR 20/12 A3002 RMK AO2
KRCM 201835Z AUTO 16010G15KT 10SM CLR 20/12 A3003 RMK AO2
KRCM 201815Z AUTO 18009G15KT 10SM CLR 21/12 A3005 RMK AO2
KRCM 201755Z AUTO 16011KT 10SM CLR 21/12 A3005 RMK AO2
KRCM 201735Z AUTO 16014KT 10SM CLR 21/12 A3007 RMK AO2
KRCM 201715Z AUTO 18012KT 10SM CLR 21/12 A3008 RMK AO2
KRCM 201655Z AUTO 17011G18KT 10SM CLR 21/12 A3008 RMK AO2
KRCM 201635Z AUTO 16011KT 10SM CLR 20/12 A3008 RMK AO2
KRCM 201615Z AUTO 17011G15KT 10SM CLR 20/12 A3009 RMK AO2
KRCM 201555Z AUTO 17009G16KT 10SM CLR 18/12 A3010 RMK AO2
KRCM 201535Z AUTO 18010G15KT 10SM CLR 18/12 A3010 RMK AO2
KRCM 201515Z AUTO 18010G16KT 10SM CLR 17/11 A3011 RMK AO2
KRCM 201455Z AUTO 18006G14KT 10SM CLR 16/11 A3011 RMK AO2
KRCM 201435Z AUTO 17008KT 10SM CLR 15/11 A3011 RMK AO2
KRCM 201415Z AUTO 17006KT 10SM CLR 14/11 A3011 RMK AO2
KRCM 201355Z AUTO 16004KT 10SM CLR 13/10 A3011 RMK AO2
KRCM 201335Z AUTO 15003KT 10SM CLR 12/10 A3011 RMK AO2
KRCM 201315Z AUTO 15003KT 10SM CLR 12/09 A3011 RMK AO2
KRCM 201255Z AUTO 16004KT 10SM CLR 11/09 A3011 RMK AO2
KRCM 201235Z AUTO 17004KT 10SM CLR 11/09 A3012 RMK AO2
KRCM 201215Z AUTO 16005KT 10SM CLR 11/09 A3011 RMK AO2
KRCM 201155Z AUTO 17005KT 10SM CLR 12/09 A3012 RMK AO2
KRCM 201135Z AUTO 17005KT 10SM CLR 11/09 A3012 RMK AO2
KRCM 201115Z AUTO 16006KT 10SM CLR 11/09 A3012 RMK AO2
KRCM 201055Z AUTO 16006KT 10SM CLR 11/08 A3012 RMK AO2
KRCM 201035Z AUTO 16005KT 10SM CLR 11/08 A3012 RMK AO2
KRCM 201015Z AUTO 16005KT 10SM CLR 11/09 A3012 RMK AO2
KRCM 200955Z AUTO 15004KT 10SM CLR 11/09 A3011 RMK AO2
KRCM 200935Z AUTO 17005KT 10SM CLR 11/09 A3011 RMK AO2
KRCM 200915Z AUTO 16005KT 10SM CLR 11/09 A3011 RMK AO2
KRCM 200855Z AUTO 16004KT 10SM CLR 11/09 A3011 RMK AO2
KRCM 200835Z AUTO 16005KT 10SM CLR 11/09 A3011 RMK AO2
KRCM 200815Z AUTO 17005KT 10SM CLR 11/09 A3011 RMK AO2
KRCM 200755Z AUTO 17004KT 10SM CLR 11/09 A3011 RMK AO2
KRCM 200735Z AUTO 17005KT 10SM CLR 12/10 A3011 RMK AO2
KRCM 200715Z AUTO 17004KT 10SM CLR 12/10 A3010 RMK AO2
KRCM 200655Z AUTO 17004KT 10SM CLR 12/10 A3010 RMK AO2
KRCM 200635Z AUTO 16005KT 10SM CLR 12/10 A3011 RMK AO2
KRCM 200615Z AUTO 17004KT 10SM CLR 13/10 A3010 RMK AO2
KRCM 200555Z AUTO 17004KT 10SM CLR 13/10 A3010 RMK AO2
KRCM 200535Z AUTO 17003KT 10SM CLR 13/11 A3010 RMK AO2
KRCM 200515Z AUTO 17004KT 10SM CLR 13/11 A3010 RMK AO2
KRCM 200455Z AUTO 17003KT 10SM CLR 13/11 A3010 RMK AO2
KRCM 200435Z AUTO 15003KT 10SM CLR 13/11 A3010 RMK AO2
KRCM 200415Z AUTO 00000KT 10SM CLR 14/11 A3010 RMK AO2
KRCM 200355Z AUTO 15003KT 10SM CLR 15/11 A3010 RMK AO2
KRCM 200335Z AUTO 16003KT 10SM CLR 15/11 A3010 RMK AO2
KRCM 200315Z AUTO 00000KT 10SM CLR 13/11 A3010 RMK AO2
KRCM 200255Z AUTO 14004KT 10SM CLR 15/11 A3009 RMK AO2
KRCM 200235Z AUTO 14004KT 10SM CLR 15/11 A3009 RMK AO2
KRCM 200215Z AUTO 00000KT 10SM CLR 16/11 A3009 RMK AO2
KRCM 200155Z AUTO 14004KT 10SM CLR 17/11 A3009 RMK AO2
KRCM 200135Z AUTO 14004KT 10SM CLR 17/11 A3009 RMK AO2
KRCM 200115Z AUTO 13004KT 10SM CLR 18/11 A3009 RMK AO2
KRCM 200055Z AUTO 13004KT 10SM CLR 18/11 A3009 RMK AO2
KRCM 200035Z AUTO 12004KT 10SM CLR 19/12 A3009 RMK AO2
KRCM 200015Z AUTO 13003KT 10SM CLR 20/11 A3008 RMK AO2
KRCM 192355Z AUTO 00000KT 10SM CLR 20/11 A3008 RMK AO2
KRCM 192335Z AUTO 14003KT 10SM CLR 21/11 A3008 RMK AO2
KRCM 192315Z AUTO 00000KT 10SM CLR 22/11 A3008 RMK AO2
KRCM 192255Z AUTO 18004KT 10SM CLR 23/11 A3008 RMK AO2
KRCM 192235Z AUTO 17005KT 10SM CLR 24/10 A3008 RMK AO2
KRCM 192215Z AUTO 17008KT 10SM CLR 25/10 A3008 RMK AO2
KRCM 192155Z AUTO 17008KT 10SM CLR 26/10 A3008 RMK AO2
KRCM 192135Z AUTO 17008KT 10SM CLR 26/10 A3008 RMK AO2
KRCM 192115Z AUTO 16009KT 10SM CLR 26/10 A3009 RMK AO2
KRCM 192055Z AUTO 16008KT 10SM CLR 26/10 A3009 RMK AO2
KRCM 192035Z AUTO 16007KT 144V204 10SM CLR 26/10 A3009 RMK AO2
KRCM 192015Z AUTO 18007KT 10SM CLR 26/10 A3009 RMK AO2
KRCM 191955Z AUTO 16009KT 10SM CLR 26/10 A3010 RMK AO2
KRCM 191935Z AUTO 16008KT 144V204 10SM CLR 25/10 A3010 RMK AO2
KRCM 191915Z AUTO 20009KT 10SM CLR 25/10 A3010 RMK AO2
KRCM 191855Z AUTO 20008G14KT 10SM CLR 25/10 A3011 RMK AO2
KRCM 191835Z AUTO 21007KT 10SM CLR 24/10 A3012 RMK AO2
KRCM 191815Z AUTO 19009KT 164V334 10SM CLR 24/10 A3013 RMK AO2
KRCM 191755Z AUTO 20008G16KT 10SM CLR 23/09 A3013 RMK AO2
KRCM 191735Z AUTO 21008G15KT 10SM CLR 23/09 A3014 RMK AO2
KRCM 191715Z AUTO 21010KT 10SM CLR 22/09 A3015 RMK AO2
KRCM 191655Z AUTO 20009KT 10SM CLR 22/10 A3015 RMK AO2
KRCM 191635Z AUTO 19008KT 10SM CLR 21/10 A3015 RMK AO2
KRCM 191615Z AUTO 18008KT 10SM CLR 20/10 A3015 RMK AO2
KRCM 191555Z AUTO 22010KT 10SM CLR 19/10 A3015 RMK AO2
KRCM 191535Z AUTO 21009G14KT 10SM CLR 18/10 A3015 RMK AO2
KRCM 191515Z AUTO 21005KT 10SM CLR 17/10 A3015 RMK AO2
KRCM 191455Z AUTO 20007KT 10SM CLR 16/10 A3015 RMK AO2